Time;durP1;ratioP1;P1;durP2;ratioP2;P2;SDS_P1;SDS_P2;PMS_P1;PMS_P2;Temp;Humidity;BMP_temperature;BMP_pressure;BME280_temperature;BME280_humidity;BME280_pressure;Samples;Min_cycle;Max_cycle;Signal;HPM_P1;HPM_P2
2021/05/26 00:00:23;;;;;;;2.12;1.70;;;;;;;40.77;30.55;161952.61;1698311;84;21569;-78
2021/05/26 00:02:55;;;;;;;3.00;1.75;;;;;;;40.74;30.61;161944.59;1698278;84;21229;-78
2021/05/26 00:05:29;;;;;;;2.90;1.87;;;;;;;40.79;30.70;161956.67;1698275;84;21455;-78
2021/05/26 00:08:02;;;;;;;2.10;1.75;;;;;;;40.76;30.67;161948.59;1698266;84;21211;-77
2021/05/26 00:10:35;;;;;;;1.82;1.60;;;;;;;40.68;30.60;161927.09;1698223;84;21996;-77
2021/05/26 00:13:07;;;;;;;2.30;1.70;;;;;;;40.80;30.53;161960.67;1698316;84;21402;-77
2021/05/26 00:15:40;;;;;;;3.52;1.80;;;;;;;40.83;30.42;161967.37;1698266;84;21199;-77
2021/05/26 00:18:13;;;;;;;1.82;1.47;;;;;;;40.63;30.58;161914.97;1698422;84;21500;-78
2021/05/26 00:20:47;;;;;;;2.40;1.62;;;;;;;40.66;30.60;161923.03;1698213;84;21222;-77
2021/05/26 00:23:21;;;;;;;1.87;1.67;;;;;;;40.53;30.67;161888.14;1698301;84;21360;-77
2021/05/26 00:25:53;;;;;;;2.12;1.50;;;;;;;40.56;30.60;161896.20;1698401;84;21253;-78
2021/05/26 00:28:26;;;;;;;4.17;1.92;;;;;;;40.51;30.68;161882.77;1698363;84;21199;-77
2021/05/26 00:31:00;;;;;;;3.55;2.05;;;;;;;40.23;30.94;161806.25;1698341;84;21732;-78
2021/05/26 00:33:32;;;;;;;3.42;1.62;;;;;;;40.10;31.12;161772.72;1698396;84;21206;-78
2021/05/26 00:36:05;;;;;;;3.02;1.80;;;;;;;40.12;31.17;161778.09;1698305;84;21226;-78
2021/05/26 00:38:38;;;;;;;4.03;1.82;;;;;;;40.24;31.06;161808.94;1698410;84;21752;-77
2021/05/26 00:41:11;;;;;;;2.92;2.05;;;;;;;40.17;31.10;161791.48;1698241;84;21694;-78
2021/05/26 00:43:43;;;;;;;2.47;1.82;;;;;;;39.99;31.26;161741.84;1698399;84;21270;-78
2021/05/26 00:46:15;;;;;;;2.02;1.70;;;;;;;39.97;31.33;161737.84;1698321;84;21282;-78
2021/05/26 00:48:48;;;;;;;2.42;1.90;;;;;;;39.92;31.41;161723.09;1698125;84;21218;-78
2021/05/26 00:51:20;;;;;;;2.45;2.10;;;;;;;39.89;31.50;161713.66;1698289;84;21473;-78
2021/05/26 00:53:53;;;;;;;4.15;2.08;;;;;;;39.86;31.58;161706.97;1698332;84;21198;-78
2021/05/26 00:56:26;;;;;;;4.78;2.00;;;;;;;39.80;31.69;161689.53;1698269;84;21225;-78
2021/05/26 00:59:00;;;;;;;5.20;2.42;;;;;;;39.67;31.87;161655.97;1698313;84;21253;-77
2021/05/26 01:01:33;;;;;;;3.62;2.30;;;;;;;39.66;31.91;161651.97;1698276;84;21329;-78
2021/05/26 01:04:07;;;;;;;9.38;2.85;;;;;;;39.73;31.90;161670.72;1698050;84;21238;-77
2021/05/26 01:06:41;;;;;;;2.95;2.37;;;;;;;39.72;31.98;161668.03;1698067;84;21230;-78
2021/05/26 01:09:14;;;;;;;2.62;2.42;;;;;;;39.81;31.92;161692.22;1698125;84;21214;-78
2021/05/26 01:11:48;;;;;;;7.67;2.40;;;;;;;39.75;32.03;161676.09;1698040;83;22205;-78
2021/05/26 01:14:21;;;;;;;2.90;1.85;;;;;;;39.88;31.96;161710.97;1698271;84;21234;-78
2021/05/26 01:16:54;;;;;;;2.92;2.30;;;;;;;39.82;32.01;161696.22;1698115;84;21273;-77
2021/05/26 01:20:07;;;;;;;6.80;2.35;;;;;;;39.87;32.03;161709.66;1698229;84;21234;-77
2021/05/26 01:22:40;;;;;;;2.60;2.20;;;;;;;39.93;32.03;161724.47;1698378;84;21812;-78
2021/05/26 01:25:13;;;;;;;5.97;2.45;;;;;;;39.91;32.06;161720.36;1698277;84;21282;-78
2021/05/26 01:27:46;;;;;;;5.60;2.45;;;;;;;39.97;32.04;161737.84;1698198;84;21379;-77
2021/05/26 01:30:20;;;;;;;4.97;2.65;;;;;;;39.97;32.06;161736.53;1698273;84;21233;-78
2021/05/26 01:32:54;;;;;;;3.45;2.22;;;;;;;39.95;32.19;161731.16;1703879;83;21222;-78
2021/05/26 01:35:28;;;;;;;4.78;2.30;;;;;;;39.93;32.26;161724.47;1698653;83;21805;-77
2021/05/26 01:38:01;;;;;;;5.83;2.40;;;;;;;39.85;32.35;161704.28;1698254;84;21279;-78
2021/05/26 01:40:34;;;;;;;2.83;2.27;;;;;;;39.87;32.35;161709.66;1698193;84;21377;-77
2021/05/26 01:43:07;;;;;;;4.20;2.47;;;;;;;39.93;32.34;161724.47;1698300;84;21242;-78
2021/05/26 01:45:41;;;;;;;4.60;1.92;;;;;;;40.07;32.25;161763.34;1698262;84;21218;-78
2021/05/26 01:48:15;;;;;;;5.50;1.98;;;;;;;40.01;32.32;161748.59;1698213;84;21214;-78
2021/05/26 01:50:49;;;;;;;2.00;1.77;;;;;;;39.98;32.28;161739.22;1698104;84;21254;-78
2021/05/26 01:53:21;;;;;;;3.40;1.72;;;;;;;39.85;32.42;161702.91;1698167;84;21261;-78
2021/05/26 01:55:54;;;;;;;10.70;2.17;;;;;;;39.78;32.51;161685.47;1698366;84;21225;-78
2021/05/26 01:58:27;;;;;;;2.80;1.92;;;;;;;39.81;32.49;161692.22;1698246;84;21285;-77
2021/05/26 02:01:01;;;;;;;2.75;1.90;;;;;;;38.59;33.56;161364.91;1703672;83;21245;-78
2021/05/26 02:03:34;;;;;;;2.25;1.82;;;;;;;38.54;33.50;161351.50;1698217;84;21233;-78
2021/05/26 02:06:07;;;;;;;3.40;1.82;;;;;;;39.17;33.40;161520.50;1698285;84;21234;-77
2021/05/26 02:08:40;;;;;;;3.27;2.20;;;;;;;39.77;32.62;161682.78;1698326;84;21237;-78
2021/05/26 02:14:09;;;;;;;3.37;2.27;;;;;;;39.92;32.54;161721.72;1698207;84;21225;-78
2021/05/26 02:16:41;;;;;;;2.12;1.92;;;;;;;39.86;32.57;161706.97;1698310;84;21277;-77
2021/05/26 02:19:14;;;;;;;4.28;2.02;;;;;;;39.94;32.46;161729.78;1698186;84;22060;-78
2021/05/26 02:21:47;;;;;;;3.87;1.87;;;;;;;39.97;32.40;161736.53;1698183;84;21225;-78
2021/05/26 02:24:21;;;;;;;2.50;2.10;;;;;;;39.93;32.41;161727.09;1698210;84;21325;-77
2021/05/26 02:26:54;;;;;;;3.58;1.82;;;;;;;39.95;32.46;161732.47;1698259;84;21567;-78
2021/05/26 02:29:27;;;;;;;2.47;1.82;;;;;;;39.62;32.74;161641.22;1698188;84;21331;-78
2021/05/26 02:32:00;;;;;;;1.92;1.60;;;;;;;39.86;32.58;161706.97;1698271;84;21217;-77
2021/05/26 02:34:35;;;;;;;4.45;1.92;;;;;;;39.97;32.44;161736.53;1698422;83;21219;-78
2021/05/26 02:37:07;;;;;;;2.87;1.95;;;;;;;39.98;32.40;161739.22;1698283;84;21309;-77
2021/05/26 02:39:41;;;;;;;2.80;1.80;;;;;;;40.03;32.36;161753.97;1703637;83;21249;-77
2021/05/26 02:42:14;;;;;;;1.80;1.60;;;;;;;39.95;32.43;161731.16;1698261;84;21229;-77
2021/05/26 02:44:47;;;;;;;2.80;2.20;;;;;;;39.97;32.41;161736.53;1698217;84;21740;-78
2021/05/26 02:47:19;;;;;;;4.10;2.22;;;;;;;39.94;32.51;161728.47;1698266;84;21277;-78
2021/05/26 02:49:52;;;;;;;3.85;2.40;;;;;;;40.09;32.42;161770.03;1698187;84;21203;-77
2021/05/26 02:52:25;;;;;;;3.55;2.22;;;;;;;40.34;32.15;161837.17;1698251;84;21476;-78
2021/05/26 02:55:14;;;;;;;5.67;3.50;;;;;;;40.40;32.10;161851.94;1698302;84;21225;-77
2021/05/26 02:57:48;;;;;;;4.62;3.40;;;;;;;40.15;32.34;161786.16;1699100;83;21785;-77
2021/05/26 03:00:25;;;;;;;6.40;2.95;;;;;;;39.97;32.56;161737.84;1694685;84;21725;-77
2021/05/26 03:03:08;;;;;;;4.83;2.87;;;;;;;39.76;32.78;161680.09;1698272;84;21261;-78
2021/05/26 03:05:43;;;;;;;3.72;2.55;;;;;;;39.90;32.71;161717.67;1698359;84;21216;-78
2021/05/26 03:08:15;;;;;;;6.83;2.58;;;;;;;39.91;32.73;161720.36;1698346;84;21274;-77
2021/05/26 03:10:50;;;;;;;3.05;2.67;;;;;;;39.92;32.76;161723.09;1698151;84;21730;-77
2021/05/26 03:13:25;;;;;;;3.83;2.80;;;;;;;39.99;32.71;161743.22;1698740;83;21233;-77
2021/05/26 03:16:02;;;;;;;4.20;2.77;;;;;;;39.95;32.84;161731.16;1698246;84;21265;-78
2021/05/26 03:18:35;;;;;;;5.03;2.70;;;;;;;39.95;32.92;161732.47;1698341;84;21219;-77
2021/05/26 03:21:08;;;;;;;3.15;1.90;;;;;;;40.06;32.86;161761.98;1698270;84;22102;-78
2021/05/26 03:23:43;;;;;;;2.70;1.75;;;;;;;40.04;32.90;161756.66;1698685;84;21219;-78
2021/05/26 03:26:20;;;;;;;1.85;1.72;;;;;;;40.00;32.99;161745.91;1698469;83;21216;-78
2021/05/26 03:28:53;;;;;;;2.92;1.40;;;;;;;39.90;33.26;161716.34;1698237;84;21225;-78
2021/05/26 03:31:26;;;;;;;3.30;1.50;;;;;;;39.91;33.23;161720.36;1698052;84;21743;-78
2021/05/26 03:33:58;;;;;;;1.95;1.70;;;;;;;39.96;33.20;161735.16;1698286;84;22109;-79
2021/05/26 03:36:31;;;;;;;1.77;1.50;;;;;;;39.96;33.32;161733.84;1698311;84;21476;-77
2021/05/26 03:39:05;;;;;;;3.08;1.50;;;;;;;39.09;34.05;161500.39;1698338;84;21261;-77
2021/05/26 03:41:39;;;;;;;2.45;1.50;;;;;;;39.70;33.72;161662.72;1698220;84;21230;-77
2021/05/26 03:44:12;;;;;;;2.65;1.52;;;;;;;39.91;33.55;161719.03;1698251;84;21281;-77
2021/05/26 03:46:46;;;;;;;1.82;1.55;;;;;;;39.97;33.59;161736.53;1698246;84;21270;-77
2021/05/26 03:49:20;;;;;;;4.30;1.80;;;;;;;39.86;33.78;161705.59;1698101;84;21904;-78
2021/05/26 03:51:53;;;;;;;2.70;1.60;;;;;;;40.03;33.64;161753.97;1698325;84;21534;-76
2021/05/26 03:54:26;;;;;;;1.60;1.50;;;;;;;40.12;33.62;161778.09;1698087;84;21238;-76
2021/05/26 03:56:58;;;;;;;2.02;1.60;;;;;;;39.41;34.08;161586.19;1698212;84;21222;-75
2021/05/26 03:59:32;;;;;;;2.85;1.67;;;;;;;40.22;33.68;161803.61;1698422;84;21463;-77
2021/05/26 04:02:05;;;;;;;2.83;2.12;;;;;;;40.23;33.72;161806.25;1698191;84;21258;-77
2021/05/26 04:04:39;;;;;;;3.40;1.90;;;;;;;40.35;33.61;161839.86;1698410;84;21346;-75
2021/05/26 04:07:13;;;;;;;1.75;1.62;;;;;;;40.25;33.79;161811.63;1703524;83;21298;-78
2021/05/26 04:09:50;;;;;;;3.47;1.87;;;;;;;40.38;33.71;161847.92;1697828;83;21413;-79
2021/05/26 04:12:30;;;;;;;3.70;2.00;;;;;;;40.32;33.81;161831.75;1698063;84;21297;-79
2021/05/26 04:15:01;;;;;;;3.05;1.98;;;;;;;40.36;33.88;161842.55;1697545;83;21274;-78
2021/05/26 04:17:52;;;;;;;1.77;1.50;;;;;;;40.46;33.79;161869.37;1735827;78;21709;-77
2021/05/26 04:20:28;;;;;;;3.72;1.80;;;;;;;40.53;33.71;161886.83;1763318;80;21217;-80
2021/05/26 04:23:02;;;;;;;2.98;1.85;;;;;;;40.43;34.04;161860.00;1766661;81;21201;-78
2021/05/26 04:25:35;;;;;;;1.70;1.57;;;;;;;40.56;34.17;161896.20;1765920;80;21189;-78
2021/05/26 04:28:08;;;;;;;3.77;1.50;;;;;;;40.60;34.41;161906.97;1761373;79;21815;-78
2021/05/26 04:30:41;;;;;;;2.70;1.72;;;;;;;39.16;36.02;161519.19;1738126;82;21375;-76
2021/05/26 04:33:16;;;;;;;2.00;1.40;;;;;;;40.66;34.95;161923.03;1738168;81;21307;-76
2021/05/26 04:35:49;;;;;;;2.17;1.82;;;;;;;40.26;35.41;161815.67;1760406;81;21170;-76
2021/05/26 04:38:21;;;;;;;2.83;2.08;;;;;;;40.32;35.71;161830.44;1760200;79;21174;-77
2021/05/26 04:40:54;;;;;;;2.17;1.57;;;;;;;40.82;35.08;161966.05;1753792;81;21298;-76
2021/05/26 04:43:28;;;;;;;2.35;1.50;;;;;;;40.88;34.98;161982.13;1761575;81;21203;-77
2021/05/26 04:46:01;;;;;;;2.98;1.65;;;;;;;40.81;35.02;161963.36;1752844;79;21158;-76
2021/05/26 04:48:34;;;;;;;2.37;1.55;;;;;;;40.92;34.93;161992.89;1767920;81;21205;-77
2021/05/26 04:51:07;;;;;;;2.98;1.60;;;;;;;41.27;34.60;162086.89;1768749;81;21221;-76
2021/05/26 04:53:40;;;;;;;2.10;1.75;;;;;;;41.38;34.39;162117.75;1757771;81;22017;-77
2021/05/26 04:56:13;;;;;;;3.60;1.57;;;;;;;41.34;34.37;162107.05;1770919;81;21285;-77
2021/05/26 04:58:46;;;;;;;2.20;1.40;;;;;;;41.29;34.36;162093.59;1744408;81;21138;-77
2021/05/26 05:01:21;;;;;;;5.90;1.65;;;;;;;41.22;34.44;162073.45;1759346;81;21177;-77
2021/05/26 05:03:53;;;;;;;11.80;2.02;;;;;;;41.14;34.50;162051.94;1763662;81;21312;-77
2021/05/26 05:06:25;;;;;;;3.17;2.10;;;;;;;41.26;34.39;162084.20;1769753;80;21171;-76
2021/05/26 05:08:58;;;;;;;3.15;1.80;;;;;;;40.66;35.38;161921.72;1758710;81;21186;-76
2021/05/26 05:11:30;;;;;;;2.85;1.72;;;;;;;41.09;34.67;162039.86;1749466;81;21295;-77
2021/05/26 05:14:04;;;;;;;2.35;1.85;;;;;;;41.15;34.68;162056.00;1759022;81;21162;-76
2021/05/26 05:16:36;;;;;;;3.98;2.55;;;;;;;41.32;34.52;162100.34;1763052;81;21313;-77
2021/05/26 05:19:09;;;;;;;4.40;1.82;;;;;;;41.29;34.57;162093.59;1771243;81;21367;-76
2021/05/26 05:21:42;;;;;;;2.90;1.70;;;;;;;41.40;34.59;162123.12;1759785;81;21188;-78
2021/05/26 05:24:17;;;;;;;2.47;1.67;;;;;;;41.39;34.75;162119.13;1765572;81;21174;-78
2021/05/26 05:26:50;;;;;;;2.47;1.62;;;;;;;41.45;34.62;162136.56;1743018;81;21173;-77
2021/05/26 05:29:23;;;;;;;2.30;1.70;;;;;;;41.51;34.62;162152.66;1760076;79;21292;-78
2021/05/26 05:31:55;;;;;;;2.27;1.52;;;;;;;41.67;34.51;162194.37;1784424;79;21295;-79
2021/05/26 05:34:27;;;;;;;3.55;1.80;;;;;;;41.44;34.67;162132.52;1770948;81;21804;-77
2021/05/26 05:37:00;;;;;;;1.92;1.72;;;;;;;41.38;34.86;162116.42;1779238;79;21812;-77
2021/05/26 05:39:32;;;;;;;3.55;1.70;;;;;;;41.31;34.97;162098.97;1768915;80;21324;-80
2021/05/26 05:42:05;;;;;;;3.17;1.85;;;;;;;41.42;34.86;162128.50;1751141;79;21182;-77
2021/05/26 05:44:38;;;;;;;5.37;1.90;;;;;;;41.39;34.92;162119.13;1747209;79;21335;-78
2021/05/26 05:47:11;;;;;;;2.87;1.70;;;;;;;41.80;34.48;162230.61;1747216;79;21328;-79
2021/05/26 05:49:46;;;;;;;2.67;1.80;;;;;;;42.09;34.10;162309.91;1750650;79;22309;-79
2021/05/26 05:52:20;;;;;;;2.20;1.62;;;;;;;42.16;33.98;162328.69;1750053;79;21313;-81
2021/05/26 05:54:52;;;;;;;2.30;1.45;;;;;;;41.80;34.24;162230.61;1741671;79;21391;-80
2021/05/26 05:57:25;;;;;;;2.22;1.75;;;;;;;41.70;34.37;162202.39;1751133;79;21269;-80
2021/05/26 05:59:58;;;;;;;1.95;1.65;;;;;;;41.75;34.33;162217.16;1749542;79;21387;-78
2021/05/26 06:02:35;;;;;;;1.80;1.65;;;;;;;41.76;34.28;162218.53;1749792;79;21721;-79
2021/05/26 06:05:12;;;;;;;5.78;1.65;;;;;;;41.81;34.35;162231.94;1745369;79;21316;-86
2021/05/26 06:07:45;;;;;;;2.90;1.72;;;;;;;41.79;34.49;162226.55;1742952;79;21423;-86
2021/05/26 06:10:18;;;;;;;3.50;1.62;;;;;;;41.83;34.50;162237.31;1749944;79;21293;-83
2021/05/26 06:12:56;;;;;;;7.85;2.27;;;;;;;41.54;34.68;162159.41;1746962;79;21308;-86
2021/05/26 06:15:28;;;;;;;5.35;1.50;;;;;;;41.36;35.02;162111.05;1749614;79;22636;-83
2021/05/26 06:18:02;;;;;;;2.92;1.98;;;;;;;41.55;34.93;162162.09;1756205;79;21320;-84
2021/05/26 06:20:36;;;;;;;2.25;1.72;;;;;;;41.63;34.89;162183.63;1765243;79;21218;-82
2021/05/26 06:23:10;;;;;;;2.30;1.72;;;;;;;41.73;34.78;162211.78;1770844;79;21195;-84
2021/05/26 06:25:46;;;;;;;1.70;1.60;;;;;;;41.94;34.61;162269.55;1767648;78;21329;-83
2021/05/26 06:28:18;;;;;;;2.25;1.95;;;;;;;41.83;34.39;162238.69;1779101;79;21317;-83
2021/05/26 06:30:56;;;;;;;2.27;1.57;;;;;;;41.86;34.25;162245.37;1774711;79;21305;-78
2021/05/26 06:33:30;;;;;;;4.62;2.00;;;;;;;41.92;34.12;162264.16;1749722;79;21322;-79
2021/05/26 06:36:06;;;;;;;3.22;1.70;;;;;;;42.02;34.05;162291.06;1778195;79;21250;-80
2021/05/26 06:38:41;;;;;;;3.08;1.80;;;;;;;42.06;33.94;162300.52;1770595;79;21223;-77
2021/05/26 06:41:15;;;;;;;3.30;1.32;;;;;;;41.97;33.96;162276.30;1781812;79;21171;-82
2021/05/26 06:43:51;;;;;;;4.95;1.72;;;;;;;41.84;34.15;162241.38;1771658;80;21313;-82
2021/05/26 06:46:24;;;;;;;2.72;1.65;;;;;;;41.83;34.08;162237.31;1773864;79;21312;-81
2021/05/26 06:49:01;;;;;;;1.47;1.20;;;;;;;41.82;34.14;162236.00;1767718;79;21320;-83
2021/05/26 06:51:41;;;;;;;1.95;1.35;;;;;;;41.88;34.23;162253.45;1766913;80;21233;-80
2021/05/26 06:54:17;;;;;;;2.22;1.40;;;;;;;41.86;34.10;162245.37;1774298;79;21345;-81
2021/05/26 06:56:53;;;;;;;1.67;1.37;;;;;;;41.86;34.01;162245.37;1769941;79;21962;-80
2021/05/26 06:59:29;;;;;;;3.22;1.40;;;;;;;41.94;33.85;162268.22;1772552;78;21368;-81
2021/05/26 07:02:03;;;;;;;2.35;1.60;;;;;;;42.00;33.91;162284.38;1768972;79;21309;-79
2021/05/26 07:04:36;;;;;;;3.42;1.52;;;;;;;42.15;33.73;162326.00;1769509;79;21190;-82
2021/05/26 07:07:09;;;;;;;1.98;1.50;;;;;;;42.59;33.38;162444.30;1772342;79;21265;-82
2021/05/26 07:09:41;;;;;;;2.98;1.20;;;;;;;42.73;33.27;162480.56;1763916;80;21364;-84
2021/05/26 07:12:14;;;;;;;1.72;1.30;;;;;;;42.71;33.21;162476.50;1765521;79;21340;-83
2021/05/26 07:14:51;;;;;;;4.37;1.65;;;;;;;42.54;33.52;162430.84;1777747;79;21384;-83
2021/05/26 07:17:28;;;;;;;2.45;1.70;;;;;;;42.76;33.28;162488.69;1768228;80;21349;-79
2021/05/26 07:20:00;;;;;;;2.27;1.50;;;;;;;43.00;32.98;162555.81;1765905;80;21333;-82
2021/05/26 07:22:33;;;;;;;1.87;1.10;;;;;;;43.12;32.83;162588.13;1777683;79;21321;-77
2021/05/26 07:25:08;;;;;;;3.08;1.50;;;;;;;43.02;32.89;162559.89;1775552;80;21332;-78
2021/05/26 07:27:42;;;;;;;1.32;1.22;;;;;;;43.03;32.84;162563.91;1775628;79;21650;-80
2021/05/26 07:30:21;;;;;;;2.62;1.30;;;;;;;43.10;32.81;162581.37;1771653;79;21678;-77
2021/05/26 07:32:55;;;;;;;1.75;1.62;;;;;;;43.15;32.90;162594.89;1768754;79;21308;-79
2021/05/26 07:35:34;;;;;;;4.30;1.47;;;;;;;42.93;33.17;162535.72;1770319;79;21179;-78
2021/05/26 07:38:11;;;;;;;1.32;1.22;;;;;;;43.01;33.17;162557.19;1769723;79;21321;-78
2021/05/26 07:40:50;;;;;;;2.77;1.30;;;;;;;43.05;33.17;162569.28;1772171;79;21372;-76
2021/05/26 07:43:31;;;;;;;1.87;1.42;;;;;;;43.33;32.99;162644.63;1769550;80;21163;-77
2021/05/26 07:46:04;;;;;;;2.95;1.42;;;;;;;43.31;32.92;162637.86;1777660;79;21313;-77
2021/05/26 07:48:38;;;;;;;1.65;1.07;;;;;;;43.36;32.93;162652.64;1776053;79;21426;-75
2021/05/26 07:51:16;;;;;;;4.50;1.35;;;;;;;43.36;32.87;162651.31;1771488;79;21884;-77
2021/05/26 07:53:48;;;;;;;1.60;1.37;;;;;;;43.35;32.77;162648.63;1780189;79;21855;-77
2021/05/26 07:56:22;;;;;;;2.37;1.40;;;;;;;43.31;32.79;162637.86;1779329;79;21238;-77
2021/05/26 07:58:55;;;;;;;2.30;1.60;;;;;;;43.20;32.85;162609.67;1777239;80;21721;-77
2021/05/26 08:01:32;;;;;;;5.05;1.55;;;;;;;43.20;32.88;162608.30;1780022;80;21186;-76
2021/05/26 08:04:05;;;;;;;3.45;1.80;;;;;;;43.30;32.78;162636.55;1777293;79;21317;-75
2021/05/26 08:06:45;;;;;;;1.50;1.30;;;;;;;43.42;32.68;162668.80;1778155;80;21264;-77
2021/05/26 08:09:21;;;;;;;3.33;1.60;;;;;;;43.45;32.75;162675.50;1765162;79;21321;-77
2021/05/26 08:11:53;;;;;;;3.12;1.60;;;;;;;43.29;32.93;162633.84;1767391;79;21336;-76
2021/05/26 08:14:24;;;;;;;2.75;1.60;;;;;;;43.30;32.97;162636.55;1770155;79;21297;-76
2021/05/26 08:16:58;;;;;;;2.15;1.60;;;;;;;43.17;33.00;162600.28;1768012;79;21779;-77
2021/05/26 08:19:29;;;;;;;4.90;1.70;;;;;;;43.22;33.01;162615.06;1768185;79;21199;-76
2021/05/26 08:22:01;;;;;;;1.87;1.72;;;;;;;43.13;33.18;162589.50;1775260;80;21376;-77
2021/05/26 08:24:33;;;;;;;2.70;1.67;;;;;;;43.17;33.19;162601.59;1778802;79;21836;-77
2021/05/26 08:27:05;;;;;;;6.10;2.17;;;;;;;43.04;33.39;162565.27;1765007;80;21171;-77
2021/05/26 08:29:36;;;;;;;5.78;2.27;;;;;;;42.88;33.64;162522.25;1768232;79;21270;-78
2021/05/26 08:32:08;;;;;;;3.20;2.37;;;;;;;42.97;33.59;162547.80;1766094;79;21229;-77
2021/05/26 08:34:41;;;;;;;3.50;1.95;;;;;;;42.88;33.74;162523.58;1764427;80;21396;-77
2021/05/26 08:37:14;;;;;;;4.87;2.52;;;;;;;42.83;33.85;162507.47;1766683;79;21246;-77
2021/05/26 08:39:45;;;;;;;3.98;1.85;;;;;;;42.82;33.93;162504.78;1773378;79;21251;-77
2021/05/26 08:42:18;;;;;;;5.03;2.00;;;;;;;42.79;33.93;162496.70;1765097;80;21269;-77
2021/05/26 08:44:49;;;;;;;4.30;1.85;;;;;;;42.81;33.77;162502.09;1776919;79;21357;-77
2021/05/26 08:47:21;;;;;;;4.28;1.72;;;;;;;42.67;33.87;162465.78;1764007;80;21226;-77
2021/05/26 08:49:52;;;;;;;2.27;1.47;;;;;;;42.93;33.67;162537.03;1764289;80;21226;-77
2021/05/26 08:52:24;;;;;;;2.40;1.77;;;;;;;42.83;33.71;162508.80;1772846;80;21867;-77
2021/05/26 08:54:56;;;;;;;3.47;1.52;;;;;;;42.84;33.70;162511.48;1764464;80;21787;-78
2021/05/26 08:57:28;;;;;;;2.42;1.60;;;;;;;42.95;33.66;162542.42;1764211;80;21190;-78
2021/05/26 09:00:00;;;;;;;2.80;1.95;;;;;;;42.91;33.72;162531.66;1765160;80;21191;-77
2021/05/26 09:02:32;;;;;;;3.45;1.82;;;;;;;42.89;33.72;162524.94;1764505;80;21249;-79
2021/05/26 09:05:05;;;;;;;2.77;1.57;;;;;;;42.88;33.76;162522.25;1764207;80;21195;-78
2021/05/26 09:07:38;;;;;;;3.42;1.95;;;;;;;42.85;33.71;162512.86;1766064;79;21187;-78
2021/05/26 09:10:10;;;;;;;2.67;1.90;;;;;;;42.89;33.68;162526.27;1764533;80;21166;-79
2021/05/26 09:12:45;;;;;;;2.85;1.80;;;;;;;42.81;33.71;162503.45;1765643;79;21181;-79
2021/05/26 09:15:20;;;;;;;6.45;2.15;;;;;;;42.76;33.86;162490.00;1765404;80;21270;-79
2021/05/26 09:17:57;;;;;;;6.12;1.87;;;;;;;42.82;33.90;162504.78;1766393;80;21166;-78
2021/05/26 09:20:35;;;;;;;2.52;2.15;;;;;;;42.71;34.04;162475.17;1766820;80;21221;-78
2021/05/26 09:23:18;;;;;;;4.53;2.17;;;;;;;42.64;34.20;162456.37;1764426;80;21202;-78
2021/05/26 09:25:52;;;;;;;2.50;1.72;;;;;;;42.59;34.18;162444.30;1782281;80;21313;-79
2021/05/26 09:28:33;;;;;;;13.53;2.67;;;;;;;42.58;34.18;162441.61;1766327;80;21721;-79
2021/05/26 09:31:10;;;;;;;4.08;1.90;;;;;;;42.60;34.14;162446.94;1765432;80;21745;-78
2021/05/26 09:33:52;;;;;;;3.45;1.90;;;;;;;42.57;34.13;162437.55;1765311;80;21780;-79
2021/05/26 09:36:23;;;;;;;3.85;2.05;;;;;;;42.66;34.15;162463.09;1767161;80;21185;-78
2021/05/26 09:39:05;;;;;;;3.62;1.90;;;;;;;42.66;34.12;162461.72;1771333;79;21239;-79
2021/05/26 09:41:38;;;;;;;4.72;2.42;;;;;;;42.67;34.20;162465.78;1773172;80;21272;-78
2021/05/26 09:44:10;;;;;;;4.62;2.58;;;;;;;42.68;34.18;162468.47;1767626;79;21717;-78
2021/05/26 09:46:43;;;;;;;4.67;2.20;;;;;;;42.59;34.20;162444.30;1767418;80;21320;-78
2021/05/26 09:49:23;;;;;;;8.10;2.10;;;;;;;42.57;34.25;162437.55;1766828;79;21427;-76
2021/05/26 09:51:59;;;;;;;4.47;2.47;;;;;;;42.55;34.26;162433.53;1769928;80;21184;-76
2021/05/26 09:54:32;;;;;;;5.85;2.05;;;;;;;42.65;34.18;162459.08;1773098;79;21392;-78
2021/05/26 09:58:17;;;;;;;4.62;2.10;;;;;;;42.52;34.33;162425.45;1773655;80;21318;-77
2021/05/26 10:00:50;;;;;;;5.90;2.92;;;;;;;42.48;34.43;162413.38;1769333;79;21214;-78
2021/05/26 10:03:23;;;;;;;2.90;2.30;;;;;;;42.53;34.28;162426.83;1744639;80;21306;-77
2021/05/26 10:05:55;;;;;;;3.22;2.42;;;;;;;42.37;34.38;162383.83;1770630;79;21871;-78
2021/05/26 10:08:46;;;;;;;4.53;2.42;;;;;;;42.38;34.40;162387.83;1767697;79;21186;-78
2021/05/26 10:11:32;;;;;;;4.60;2.40;;;;;;;42.50;34.25;162420.08;1766872;80;21309;-78
2021/05/26 10:14:12;;;;;;;5.80;2.52;;;;;;;42.48;34.30;162414.69;1766243;79;21179;-77
2021/05/26 10:16:47;;;;;;;2.62;2.40;;;;;;;42.52;34.42;162424.14;1768012;80;21408;-78
2021/05/26 10:19:19;;;;;;;4.70;2.20;;;;;;;42.46;34.52;162408.00;1773712;80;21309;-77
2021/05/26 10:21:53;;;;;;;4.40;2.33;;;;;;;42.48;34.57;162414.69;1766681;80;21254;-77
2021/05/26 10:24:25;;;;;;;3.47;2.30;;;;;;;42.44;34.75;162402.61;1766282;79;21368;-76
2021/05/26 10:27:02;;;;;;;5.78;2.58;;;;;;;42.47;34.78;162410.69;1770496;79;21301;-78
2021/05/26 10:29:36;;;;;;;3.80;2.17;;;;;;;42.44;34.83;162402.61;1772388;79;21309;-77
2021/05/26 10:32:19;;;;;;;4.53;2.67;;;;;;;42.44;34.90;162402.61;1773244;79;21231;-78
2021/05/26 10:35:01;;;;;;;4.65;2.58;;;;;;;42.39;35.01;162389.20;1772323;79;21230;-77
2021/05/26 10:37:40;;;;;;;3.52;2.27;;;;;;;42.44;35.18;162402.61;1779057;79;21733;-77
2021/05/26 10:40:32;;;;;;;6.30;2.42;;;;;;;42.38;35.16;162386.52;1775444;79;21362;-77
2021/05/26 10:43:21;;;;;;;11.20;2.42;;;;;;;42.38;35.19;162386.52;1752517;79;21356;-77
2021/05/26 10:45:55;;;;;;;8.93;2.60;;;;;;;42.33;35.33;162374.37;1767987;79;21317;-78
2021/05/26 10:48:54;;;;;;;7.15;2.65;;;;;;;42.34;35.18;162377.13;1769370;80;21749;-78
2021/05/26 10:51:57;;;;;;;6.17;2.67;;;;;;;42.47;35.06;162412.05;1767232;79;21210;-78
2021/05/26 10:54:45;;;;;;;5.45;2.83;;;;;;;42.48;35.09;162414.69;1766342;79;21313;-78
2021/05/26 10:57:18;;;;;;;4.50;2.85;;;;;;;42.49;35.08;162416.06;1766449;80;21155;-77
2021/05/26 11:00:25;;;;;;;7.30;3.08;;;;;;;42.51;35.04;162422.77;1768812;80;21313;-76
2021/05/26 11:03:30;;;;;;;3.12;2.52;;;;;;;42.52;35.03;162424.14;1765208;80;21935;-77
2021/05/26 11:06:13;;;;;;;4.33;2.87;;;;;;;42.55;35.05;162433.53;1765658;79;21887;-77
2021/05/26 11:08:51;;;;;;;4.97;3.08;;;;;;;42.59;35.05;162444.30;1765903;79;21253;-77
2021/05/26 11:11:39;;;;;;;6.15;2.90;;;;;;;42.55;35.00;162433.53;1769823;80;21261;-76
2021/05/26 11:14:23;;;;;;;6.62;3.55;;;;;;;42.55;34.96;162432.16;1776815;79;21851;-77
2021/05/26 11:17:12;;;;;;;6.17;3.00;;;;;;;42.58;34.93;162440.23;1776763;79;21708;-75
2021/05/26 11:19:50;;;;;;;4.30;2.80;;;;;;;42.93;34.65;162535.72;1771984;80;21376;-74
2021/05/26 11:22:40;;;;;;;6.20;3.47;;;;;;;42.48;34.98;162414.69;1771859;80;21223;-78
2021/05/26 11:25:19;;;;;;;4.22;3.40;;;;;;;42.55;34.89;162433.53;1769551;80;21167;-73
2021/05/26 11:27:57;;;;;;;4.90;3.35;;;;;;;42.46;35.03;162408.00;1777406;80;21190;-75
2021/05/26 11:30:29;;;;;;;5.12;3.70;;;;;;;42.62;34.88;162452.31;1771138;79;21844;-76
2021/05/26 11:33:07;;;;;;;4.47;3.65;;;;;;;42.69;34.82;162471.16;1767114;80;21436;-76
2021/05/26 11:35:49;;;;;;;4.85;3.58;;;;;;;42.53;34.98;162428.16;1771631;80;21317;-76
2021/05/26 11:38:25;;;;;;;5.45;3.50;;;;;;;42.27;35.44;162356.91;1772236;79;21884;-77
2021/05/26 11:41:00;;;;;;;7.72;4.20;;;;;;;42.29;35.80;162363.61;1778675;80;21336;-76
2021/05/26 11:43:35;;;;;;;6.40;4.12;;;;;;;42.28;35.98;162359.61;1766214;80;21432;-77
2021/05/26 11:46:10;;;;;;;6.20;4.58;;;;;;;42.10;36.29;162312.59;1772113;79;21424;-77
2021/05/26 11:48:48;;;;;;;8.13;4.55;;;;;;;42.11;36.63;162313.91;1789148;79;21248;-77
2021/05/26 11:51:27;;;;;;;8.15;4.08;;;;;;;40.77;38.03;161951.28;1780379;79;21223;-77
2021/05/26 11:53:59;;;;;;;10.45;5.28;;;;;;;43.13;35.66;162589.50;1777228;81;21188;-77
2021/05/26 11:56:32;;;;;;;15.18;5.35;;;;;;;42.78;35.98;162495.38;1793804;80;21801;-78
2021/05/26 11:59:05;;;;;;;8.88;4.47;;;;;;;42.66;36.14;162463.09;1795281;80;21179;-77
2021/05/26 12:01:37;;;;;;;13.15;4.42;;;;;;;42.52;36.37;162424.14;1793384;80;21328;-77
2021/05/26 12:04:18;;;;;;;5.28;3.80;;;;;;;41.86;37.35;162246.70;1766019;79;21179;-80